Latest Coastal Weather Observations for Broome

IDW60701

Issued at 6:12 am WST Wednesday 29 June 2016 (issued every 10 minutes, with the page automatically refreshed every 10 minutes)

About coastal observations | Map of coastal stations | Coastal observations for WA | Marine services | Other Formats
Station Details ID: 003003 Name: BROOME AIRPORT Lat: -17.95 Lon: 122.24 Height: 7.42 m
Data from the previous 72 hours. | See also: Recent months at Broome
Date/Time
WST
Temp
°C
Wind Pressure Rain since
9am
mm
Weather Cloud Vis
km
Sea
Height
m
Swell
Dir  Spd
kts
Gust
kts
hPa Trend Height
m
Period
s
Dir
29/06:00am 18.4 CALM 0 0 1014.9 - 0.0 - - 10 - - - -
29/05:30am 18.3 N 3 4 1015.0 - 0.0 - - 10 - - - -
29/05:00am 18.5 N 3 4 1015.0 - 0.0 - - 10 - - - -
29/04:30am 19.5 NNE 5 6 1015.0 - 0.0 - - 10 - - - -
29/04:00am 23.0 SE 5 7 1014.9 - 0.0 - - 10 - - - -
29/03:30am 23.6 SSE 7 10 1014.9 - 0.0 - - 10 - - - -
29/03:00am 23.7 SSE 6 8 1014.8 - 0.0 - - 10 - - - -
29/02:30am 23.8 S 5 6 1015.1 - 0.0 - - 10 - - - -
29/02:00am 23.7 S 5 7 1015.4 - 0.0 - - 10 - - - -
29/01:30am 23.7 S 6 8 1015.6 - 0.0 - - 10 - - - -
29/01:00am 23.7 S 5 7 1015.8 - 0.0 - - 10 - - - -
29/12:30am 23.8 S 5 7 1016.0 - 0.0 - - 10 - - - -
29/12:00am 23.7 S 6 8 1015.9 - 0.0 - - 10 - - - -
 
Date/Time
WST
Temp
°C
Wind Pressure Rain since
9am
mm
Weather Cloud Vis
km
Sea
Height
m
Swell
Dir  Spd
kts
Gust
kts
hPa Trend Height
m
Period
s
Dir
28/11:30pm 23.6 S 4 6 1016.2 - 0.0 - - 10 - - - -
28/11:00pm 23.7 S 5 7 1016.4 - 0.0 - - 10 - - - -
28/10:30pm 23.9 S 4 6 1016.3 - 0.0 - - 10 - - - -
28/10:00pm 23.8 SSW 3 4 1016.4 - 0.0 - - 10 - - - -
28/09:30pm 23.8 SW 3 3 1016.4 - 0.0 - - 10 - - - -
28/09:00pm 23.8 CALM 0 3 1016.2 - 0.0 - - 10 - - - -
28/08:30pm 24.0 N 1 4 1016.1 - 0.0 - - 10 - - - -
28/08:00pm 24.9 WSW 3 5 1015.9 - 0.0 - - 10 - - - -
28/07:30pm 24.8 W 4 5 1015.5 - 0.0 - - 10 - - - -
28/07:00pm 25.6 WSW 5 7 1015.0 - 0.0 - - 10 - - - -
28/06:30pm 25.7 W 4 6 1014.6 - 0.0 - - 10 - - - -
28/06:00pm 26.1 WNW 4 6 1014.1 - 0.0 - - 10 - - - -
28/05:30pm 26.7 WNW 7 8 1013.8 - 0.0 - - 10 - - - -
28/05:00pm 28.0 W 8 11 1013.5 - 0.0 - - 10 - - - -
28/04:30pm 29.2 W 8 12 1013.3 - 0.0 - - 10 - - - -
28/04:00pm 30.4 W 8 10 1013.1 - 0.0 - - 10 - - - -
28/03:30pm 31.4 W 10 13 1012.7 - 0.0 - - 10 - - - -
28/03:00pm 32.1 W 9 11 1012.6 - 0.0 - - 10 - - - -
28/02:30pm 32.6 WSW 8 11 1012.7 - 0.0 - - 10 - - - -
28/02:00pm 32.8 W 8 10 1012.8 - 0.0 - - 10 - - - -
28/01:30pm 32.5 SW 6 9 1013.0 - 0.0 - - 10 - - - -
28/01:00pm 33.3 WSW 6 9 1013.2 - 0.0 - - 10 - - - -
28/12:30pm 31.8 S 6 8 1013.5 - 0.0 - - 10 - - - -
28/12:00pm 31.9 SSE 6 8 1013.7 - 0.0 - - 10 - - - -
28/11:30am 30.9 SSE 5 8 1014.2 - 0.0 - - 10 - - - -
28/11:00am 30.6 E 4 6 1014.6 - 0.0 - - 10 - - - -
28/10:30am 29.9 E 6 8 1015.1 - 0.0 - - 10 - - - -
28/10:00am 28.6 ENE 7 9 1015.3 - 0.0 - - 10 - - - -
28/09:30am 26.8 ENE 8 10 1015.4 - 0.0 - - 10 - - - -
28/09:00am 25.5 E 9 13 1015.4 - 0.0 - - 10 - - - -
28/08:30am 24.2 E 6 9 1015.5 - 0.0 - - 10 - - - -
28/08:00am 22.6 ENE 7 11 1015.2 - 0.0 - - 10 - - - -
28/07:30am 20.6 ENE 6 8 1014.9 - 0.0 - - 10 - - - -
28/07:00am 18.9 ENE 3 5 1014.6 - 0.0 - - 10 - - - -
28/06:30am 16.8 E 3 3 1014.4 - 0.0 - - 10 - - - -
28/06:00am 16.9 E 4 5 1014.1 - 0.0 - - 10 - - - -
28/05:30am 16.8 ENE 6 7 1013.8 - 0.0 - - 10 - - - -
28/05:00am 17.6 E 5 6 1013.6 - 0.0 - - 10 - - - -
28/04:30am 17.6 E 6 6 1013.4 - 0.0 - - 10 - - - -
28/04:00am 18.7 E 7 8 1013.4 - 0.0 - - 10 - - - -
28/03:30am 19.4 ESE 7 9 1013.4 - 0.0 - - 10 - - - -
28/03:00am 18.2 ESE 6 8 1013.3 - 0.0 - - 10 - - - -
28/02:30am 18.1 ESE 6 7 1013.6 - 0.0 - - 10 - - - -
28/02:00am 17.4 E 6 7 1013.5 - 0.0 - - 10 - - - -
28/01:30am 19.1 ESE 5 7 1013.5 - 0.0 - - 10 - - - -
28/01:00am 19.1 ESE 5 6 1013.7 - 0.0 - - 10 - - - -
28/12:30am 20.1 ESE 6 7 1013.9 - 0.0 - - 10 - - - -
28/12:00am 20.5 ESE 8 10 1013.9 - 0.0 - - 10 - - - -
 
Date/Time
WST
Temp
°C
Wind Pressure Rain since
9am
mm
Weather Cloud Vis
km
Sea
Height
m
Swell
Dir  Spd
kts
Gust
kts
hPa Trend Height
m
Period
s
Dir
27/11:30pm 20.4 SE 6 8 1014.4 - 0.0 - - 10 - - - -
27/11:00pm 19.5 E 6 7 1014.5 - 0.0 - - 10 - - - -
27/10:30pm 20.1 ESE 4 6 1014.6 - 0.0 - - 10 - - - -
27/10:00pm 22.6 ESE 6 7 1014.6 - 0.0 - - 10 - - - -
27/09:30pm 23.2 SE 5 6 1014.7 - 0.0 - - 10 - - - -
27/09:00pm 23.6 SSE 5 7 1014.7 - 0.0 - - 10 - - - -
27/08:30pm 23.9 SSE 5 6 1014.7 - 0.0 - - 10 - - - -
27/08:00pm 24.4 SSE 5 7 1014.7 - 0.0 - - 10 - - - -
27/07:30pm 22.2 E 6 7 1014.0 - 0.0 - - 10 - - - -
27/07:00pm 23.7 ESE 5 5 1013.8 - 0.0 - - 10 - - - -
27/06:30pm 24.7 SE 4 5 1013.4 - 0.0 - - 10 - - - -
27/06:00pm 25.2 ESE 5 6 1012.8 - 0.0 - - 10 - - - -
27/05:30pm 26.4 SE 5 6 1012.5 - 0.0 - - 10 - - - -
27/05:00pm 27.7 ESE 6 8 1012.1 - 0.0 - - 10 - - - -
27/04:30pm 28.6 SE 7 9 1011.8 - 0.0 - - 10 - - - -
27/04:00pm 29.0 SE 7 9 1011.6 - 0.0 - - 10 - - - -
27/03:30pm 28.8 SE 8 12 1011.5 - 0.0 - - 10 - - - -
27/03:00pm 28.7 SSE 9 13 1011.4 - 0.0 - - 10 - - - -
27/02:30pm 28.7 SE 9 12 1011.7 - 0.0 - - 10 - - - -
27/02:00pm 28.6 SE 10 14 1012.0 - 0.0 - - 10 - - - -
27/01:30pm 28.0 SSE 9 13 1012.3 - 0.0 - - 10 - - - -
27/01:00pm 27.8 SE 11 16 1012.7 - 0.0 - - 10 - - - -
27/12:30pm 27.0 SE 11 16 1013.2 - 0.0 - - 10 - - - -
27/12:00pm 26.7 ESE 14 19 1013.7 - 0.0 - - 10 - - - -
27/11:30am 25.9 ESE 13 18 1014.5 - 0.0 - - 10 - - - -
27/11:00am 25.2 E 15 20 1015.2 - 0.0 - - 10 - - - -
27/10:30am 24.7 E 13 17 1015.5 - 0.0 - - 10 - - - -
27/10:00am 24.2 E 13 20 1015.6 - 0.0 - - 10 - - - -
27/09:30am 22.6 E 15 21 1015.9 - 0.0 - - 10 - - - -
27/09:00am 21.7 E 14 21 1015.9 - 0.0 - - 10 - - - -
27/08:30am 20.7 E 14 18 1016.1 - 0.0 - - 10 - - - -
27/08:00am 19.6 E 12 18 1016.0 - 0.0 - - 10 - - - -
27/07:30am 18.7 E 12 16 1015.9 - 0.0 - - 10 - - - -
27/07:00am 17.8 E 10 14 1015.5 - 0.0 - - 10 - - - -
27/06:30am 17.0 E 9 13 1015.5 - 0.0 - - 10 - - - -
27/06:00am 17.4 E 8 11 1015.3 - 0.0 - - 10 - - - -
27/05:30am 18.2 E 10 13 1015.3 - 0.0 - - 10 - - - -
27/05:00am 18.7 ESE 11 16 1015.2 - 0.0 - - 10 - - - -
27/04:30am 18.9 E 12 17 1015.3 - 0.0 - - 10 - - - -
27/04:00am 19.5 ESE 12 17 1015.2 - 0.0 - - 10 - - - -
27/03:30am 19.8 ESE 14 19 1015.0 - 0.0 - - 10 - - - -
27/03:00am 20.1 ESE 13 18 1014.9 - 0.0 - - 10 - - - -
27/02:30am 20.1 E 13 18 1015.2 - 0.0 - - 10 - - - -
27/02:00am 20.5 ESE 13 18 1015.2 - 0.0 - - 10 - - - -
27/01:30am 20.9 ESE 14 19 1015.5 - 0.0 - - 10 - - - -
27/01:00am 21.2 ESE 13 19 1015.9 - 0.0 - - 10 - - - -
27/12:30am 21.4 ESE 14 21 1015.8 - 0.0 - - 10 - - - -
27/12:00am 22.0 ESE 15 23 1015.6 - 0.0 - - 10 - - - -
 
Date/Time
WST
Temp
°C
Wind Pressure Rain since
9am
mm
Weather Cloud Vis
km
Sea
Height
m
Swell
Dir  Spd
kts
Gust
kts
hPa Trend Height
m
Period
s
Dir
26/11:30pm 22.3 ESE 15 21 1015.8 - 0.0 - - 10 - - - -
26/11:00pm 22.9 SE 17 22 1015.8 - 0.0 - - 10 - - - -
26/10:30pm 23.5 SE 15 21 1015.8 - 0.0 - - 10 - - - -
26/10:00pm 24.0 SE 13 19 1015.7 - 0.0 - - 10 - - - -
26/09:30pm 24.3 SE 13 19 1015.7 - 0.0 - - 10 - - - -
26/09:00pm 24.7 SE 11 19 1015.4 - 0.0 - - 10 - - - -
26/08:30pm 25.2 SE 11 17 1015.1 - 0.0 - - 10 - - - -
26/08:00pm 25.6 SE 10 15 1014.8 - 0.0 - - 10 - - - -
26/07:30pm 25.9 SE 10 14 1014.4 - 0.0 - - 10 - - - -
26/07:00pm 26.5 SSE 10 15 1013.9 - 0.0 - - 10 - - - -
26/06:30pm 26.6 SSE 7 11 1013.5 - 0.0 - - 10 - - - -
26/06:00pm 26.2 SSW 7 9 1013.1 - 0.0 - - 10 - - - -
26/05:30pm 27.4 S 7 9 1012.8 - 0.0 - - 10 - - - -
26/05:00pm 28.2 SSW 6 8 1012.5 - 0.0 - - 10 - - - -
26/04:30pm 28.6 S 6 10 1012.2 - 0.0 - - 10 - - - -
26/04:00pm 28.9 S 7 9 1012.0 - 0.0 - - 10 - - - -
26/03:30pm 28.9 SSE 7 10 1012.0 - 0.0 - - 10 - - - -
26/03:00pm 28.9 SSE 8 11 1011.8 - 0.0 - - 10 - - - -
26/02:30pm 28.6 SSE 8 12 1011.9 - 0.0 - - 10 - - - -
26/02:00pm 28.4 S 7 13 1012.1 - 0.0 - - 10 - - - -
26/01:30pm 27.9 SSE 9 12 1012.3 - 0.0 - - 10 - - - -
26/01:00pm 27.5 SSE 8 13 1012.6 - 0.0 - - 10 - - - -
26/12:30pm 27.3 SSE 10 13 1013.2 - 0.0 - - 10 - - - -
26/12:00pm 27.1 SSE 9 13 1013.7 - 0.0 - - 10 - - - -
26/11:30am 26.3 SE 10 14 1014.5 - 0.0 - - 10 - - - -
26/11:00am 25.5 SE 10 14 1014.9 - 0.0 - - 10 - - - -
26/10:30am 25.0 ESE 11 14 1015.4 - 0.0 - - 10 - - - -
26/10:00am 24.2 ESE 10 15 1015.9 - 0.0 - Partly cloudy 10 - - - -
26/09:30am 23.4 ESE 9 13 1016.2 - 0.0 - Cloudy 10 - - - -
26/09:00am 22.5 ESE 9 12 1016.4 - 0.0 - Cloudy 10 - - - -
26/08:30am 21.6 ESE 9 13 1016.6 - 0.0 - Cloudy 10 - - - -
26/08:00am 21.1 E 8 11 1016.3 - 0.0 - Cloudy 10 - - - -
26/07:30am 21.0 E 8 11 1016.0 - 0.0 - Partly cloudy 10 - - - -
26/07:00am 21.1 ESE 10 16 1015.9 - 0.0 - Cloudy 10 - - - -
26/06:30am 21.3 SE 11 16 1015.6 - 0.0 - Cloudy 10 - - - -

Other Formats:

Comma delimited format used in spreadsheet applications
http://www.bom.gov.au/fwo/IDW60701/IDW60701.94203.axf

JavaScript Object Notation format (JSON) in row-major order
http://www.bom.gov.au/fwo/IDW60701/IDW60701.94203.json